sensor_id;sensor_type;location;lat;lon;timestamp;P1;durP1;ratioP1;P2;durP2;ratioP2
65459;SDS011;52058;49.822;6.754;2023-09-12T00:01:19;12.38;;;8.98;;
65459;SDS011;52058;49.822;6.754;2023-09-12T00:03:46;11.20;;;8.52;;
65459;SDS011;52058;49.822;6.754;2023-09-12T00:06:12;11.80;;;8.32;;
65459;SDS011;52058;49.822;6.754;2023-09-12T00:08:39;14.10;;;8.95;;
65459;SDS011;52058;49.822;6.754;2023-09-12T00:11:05;11.73;;;8.65;;
65459;SDS011;52058;49.822;6.754;2023-09-12T00:13:36;12.57;;;8.70;;
65459;SDS011;52058;49.822;6.754;2023-09-12T00:16:04;11.27;;;8.43;;
65459;SDS011;52058;49.822;6.754;2023-09-12T00:18:31;11.18;;;8.85;;
65459;SDS011;52058;49.822;6.754;2023-09-12T00:20:59;10.85;;;9.15;;
65459;SDS011;52058;49.822;6.754;2023-09-12T00:23:26;11.85;;;8.73;;
65459;SDS011;52058;49.822;6.754;2023-09-12T00:25:53;11.98;;;8.95;;
65459;SDS011;52058;49.822;6.754;2023-09-12T00:28:20;11.35;;;8.73;;
65459;SDS011;52058;49.822;6.754;2023-09-12T00:30:46;9.15;;;8.23;;
65459;SDS011;52058;49.822;6.754;2023-09-12T00:33:14;12.23;;;9.48;;
65459;SDS011;52058;49.822;6.754;2023-09-12T00:35:41;17.20;;;9.73;;
65459;SDS011;52058;49.822;6.754;2023-09-12T00:38:09;10.25;;;8.77;;
65459;SDS011;52058;49.822;6.754;2023-09-12T00:40:36;10.52;;;8.60;;
65459;SDS011;52058;49.822;6.754;2023-09-12T00:43:02;13.27;;;9.23;;
65459;SDS011;52058;49.822;6.754;2023-09-12T00:45:29;12.20;;;9.45;;
65459;SDS011;52058;49.822;6.754;2023-09-12T00:47:56;18.38;;;9.52;;
65459;SDS011;52058;49.822;6.754;2023-09-12T00:50:27;12.38;;;9.15;;
65459;SDS011;52058;49.822;6.754;2023-09-12T00:52:54;14.65;;;9.43;;
65459;SDS011;52058;49.822;6.754;2023-09-12T00:55:21;10.88;;;9.15;;
65459;SDS011;52058;49.822;6.754;2023-09-12T00:57:48;14.65;;;9.65;;
65459;SDS011;52058;49.822;6.754;2023-09-12T01:00:15;14.73;;;9.02;;
65459;SDS011;52058;49.822;6.754;2023-09-12T01:02:43;12.48;;;9.02;;
65459;SDS011;52058;49.822;6.754;2023-09-12T01:05:12;10.68;;;9.00;;
65459;SDS011;52058;49.822;6.754;2023-09-12T01:07:42;13.38;;;9.10;;
65459;SDS011;52058;49.822;6.754;2023-09-12T01:10:10;16.05;;;9.90;;
65459;SDS011;52058;49.822;6.754;2023-09-12T01:12:36;13.38;;;9.45;;
65459;SDS011;52058;49.822;6.754;2023-09-12T01:15:03;13.68;;;10.00;;
65459;SDS011;52058;49.822;6.754;2023-09-12T01:17:38;12.70;;;9.13;;
65459;SDS011;52058;49.822;6.754;2023-09-12T01:20:06;13.05;;;10.13;;
65459;SDS011;52058;49.822;6.754;2023-09-12T01:22:52;11.73;;;9.38;;
65459;SDS011;52058;49.822;6.754;2023-09-12T01:28:22;13.35;;;10.70;;
65459;SDS011;52058;49.822;6.754;2023-09-12T01:30:50;13.50;;;9.70;;
65459;SDS011;52058;49.822;6.754;2023-09-12T01:33:18;14.48;;;10.50;;
65459;SDS011;52058;49.822;6.754;2023-09-12T01:35:45;14.95;;;10.93;;
65459;SDS011;52058;49.822;6.754;2023-09-12T01:38:12;13.00;;;10.32;;
65459;SDS011;52058;49.822;6.754;2023-09-12T01:40:41;16.75;;;11.00;;
65459;SDS011;52058;49.822;6.754;2023-09-12T01:45:43;12.02;;;9.95;;
65459;SDS011;52058;49.822;6.754;2023-09-12T01:48:11;13.38;;;10.15;;
65459;SDS011;52058;49.822;6.754;2023-09-12T01:50:42;12.88;;;10.57;;
65459;SDS011;52058;49.822;6.754;2023-09-12T01:53:10;14.30;;;10.57;;
65459;SDS011;52058;49.822;6.754;2023-09-12T01:55:39;15.75;;;10.77;;
65459;SDS011;52058;49.822;6.754;2023-09-12T01:58:06;14.93;;;11.05;;
65459;SDS011;52058;49.822;6.754;2023-09-12T02:00:33;15.82;;;12.05;;
65459;SDS011;52058;49.822;6.754;2023-09-12T02:03:03;15.02;;;11.38;;
65459;SDS011;52058;49.822;6.754;2023-09-12T02:05:30;18.30;;;11.23;;
65459;SDS011;52058;49.822;6.754;2023-09-12T02:07:56;16.48;;;11.15;;
65459;SDS011;52058;49.822;6.754;2023-09-12T02:10:25;14.13;;;10.70;;
65459;SDS011;52058;49.822;6.754;2023-09-12T02:12:51;14.75;;;11.00;;
65459;SDS011;52058;49.822;6.754;2023-09-12T02:15:18;14.52;;;10.23;;
65459;SDS011;52058;49.822;6.754;2023-09-12T02:17:45;14.73;;;10.77;;
65459;SDS011;52058;49.822;6.754;2023-09-12T02:20:13;12.77;;;10.40;;
65459;SDS011;52058;49.822;6.754;2023-09-12T02:22:39;12.57;;;10.40;;
65459;SDS011;52058;49.822;6.754;2023-09-12T02:25:07;16.98;;;11.38;;
65459;SDS011;52058;49.822;6.754;2023-09-12T02:27:34;16.02;;;11.38;;
65459;SDS011;52058;49.822;6.754;2023-09-12T02:30:00;16.20;;;11.93;;
65459;SDS011;52058;49.822;6.754;2023-09-12T02:32:28;13.25;;;11.15;;
65459;SDS011;52058;49.822;6.754;2023-09-12T02:34:54;13.80;;;10.48;;
65459;SDS011;52058;49.822;6.754;2023-09-12T02:37:23;16.08;;;10.82;;
65459;SDS011;52058;49.822;6.754;2023-09-12T02:39:50;13.45;;;11.10;;
65459;SDS011;52058;49.822;6.754;2023-09-12T02:42:16;17.67;;;11.30;;
65459;SDS011;52058;49.822;6.754;2023-09-12T02:44:43;15.93;;;12.02;;
65459;SDS011;52058;49.822;6.754;2023-09-12T02:47:09;19.35;;;10.90;;
65459;SDS011;52058;49.822;6.754;2023-09-12T02:49:36;14.43;;;10.73;;
65459;SDS011;52058;49.822;6.754;2023-09-12T02:52:03;15.60;;;10.98;;
65459;SDS011;52058;49.822;6.754;2023-09-12T02:54:31;18.48;;;11.13;;
65459;SDS011;52058;49.822;6.754;2023-09-12T02:56:58;16.77;;;11.43;;
65459;SDS011;52058;49.822;6.754;2023-09-12T02:59:24;13.30;;;10.60;;
65459;SDS011;52058;49.822;6.754;2023-09-12T03:02:00;15.95;;;10.90;;
65459;SDS011;52058;49.822;6.754;2023-09-12T03:04:27;13.10;;;10.88;;
65459;SDS011;52058;49.822;6.754;2023-09-12T03:06:53;15.15;;;11.00;;
65459;SDS011;52058;49.822;6.754;2023-09-12T03:09:20;13.82;;;11.15;;
65459;SDS011;52058;49.822;6.754;2023-09-12T03:11:49;14.95;;;11.65;;
65459;SDS011;52058;49.822;6.754;2023-09-12T03:14:15;15.73;;;11.23;;
65459;SDS011;52058;49.822;6.754;2023-09-12T03:16:42;13.02;;;11.00;;
65459;SDS011;52058;49.822;6.754;2023-09-12T03:19:08;15.70;;;10.75;;
65459;SDS011;52058;49.822;6.754;2023-09-12T03:21:35;16.83;;;11.15;;
65459;SDS011;52058;49.822;6.754;2023-09-12T03:24:02;16.60;;;11.85;;
65459;SDS011;52058;49.822;6.754;2023-09-12T03:26:28;16.13;;;11.15;;
65459;SDS011;52058;49.822;6.754;2023-09-12T03:28:56;14.20;;;11.43;;
65459;SDS011;52058;49.822;6.754;2023-09-12T03:31:23;12.70;;;11.13;;
65459;SDS011;52058;49.822;6.754;2023-09-12T03:33:50;13.13;;;10.38;;
65459;SDS011;52058;49.822;6.754;2023-09-12T03:36:17;14.23;;;11.25;;
65459;SDS011;52058;49.822;6.754;2023-09-12T03:38:44;14.65;;;10.27;;
65459;SDS011;52058;49.822;6.754;2023-09-12T03:41:10;12.65;;;10.07;;
65459;SDS011;52058;49.822;6.754;2023-09-12T03:43:37;14.60;;;10.50;;
65459;SDS011;52058;49.822;6.754;2023-09-12T03:46:05;17.13;;;10.60;;
65459;SDS011;52058;49.822;6.754;2023-09-12T03:48:31;16.75;;;10.00;;
65459;SDS011;52058;49.822;6.754;2023-09-12T03:50:59;18.08;;;10.40;;
65459;SDS011;52058;49.822;6.754;2023-09-12T03:53:26;17.55;;;10.68;;
65459;SDS011;52058;49.822;6.754;2023-09-12T03:55:53;16.48;;;10.68;;
65459;SDS011;52058;49.822;6.754;2023-09-12T03:58:19;17.10;;;10.63;;
65459;SDS011;52058;49.822;6.754;2023-09-12T04:00:46;14.35;;;10.45;;
65459;SDS011;52058;49.822;6.754;2023-09-12T04:03:14;14.40;;;10.68;;
65459;SDS011;52058;49.822;6.754;2023-09-12T04:05:41;12.32;;;9.65;;
65459;SDS011;52058;49.822;6.754;2023-09-12T04:08:08;13.68;;;10.00;;
65459;SDS011;52058;49.822;6.754;2023-09-12T04:10:34;12.57;;;10.10;;
65459;SDS011;52058;49.822;6.754;2023-09-12T04:13:01;17.27;;;9.80;;
65459;SDS011;52058;49.822;6.754;2023-09-12T04:15:27;12.48;;;10.18;;
65459;SDS011;52058;49.822;6.754;2023-09-12T04:17:54;12.13;;;10.45;;
65459;SDS011;52058;49.822;6.754;2023-09-12T04:20:22;11.98;;;10.30;;
65459;SDS011;52058;49.822;6.754;2023-09-12T04:22:49;17.42;;;10.35;;
65459;SDS011;52058;49.822;6.754;2023-09-12T04:25:15;13.77;;;10.80;;
65459;SDS011;52058;49.822;6.754;2023-09-12T04:27:45;18.85;;;11.70;;
65459;SDS011;52058;49.822;6.754;2023-09-12T04:30:12;15.13;;;10.82;;
65459;SDS011;52058;49.822;6.754;2023-09-12T04:32:39;17.23;;;12.00;;
65459;SDS011;52058;49.822;6.754;2023-09-12T04:35:06;13.63;;;11.57;;
65459;SDS011;52058;49.822;6.754;2023-09-12T04:37:34;16.67;;;11.60;;
65459;SDS011;52058;49.822;6.754;2023-09-12T04:40:01;17.90;;;11.68;;
65459;SDS011;52058;49.822;6.754;2023-09-12T04:42:30;17.55;;;11.93;;
65459;SDS011;52058;49.822;6.754;2023-09-12T04:44:57;17.08;;;11.90;;
65459;SDS011;52058;49.822;6.754;2023-09-12T04:47:23;18.13;;;12.40;;
65459;SDS011;52058;49.822;6.754;2023-09-12T04:49:50;19.20;;;12.70;;
65459;SDS011;52058;49.822;6.754;2023-09-12T04:52:16;16.00;;;12.10;;
65459;SDS011;52058;49.822;6.754;2023-09-12T04:54:44;17.02;;;12.55;;
65459;SDS011;52058;49.822;6.754;2023-09-12T04:57:11;17.65;;;12.50;;
65459;SDS011;52058;49.822;6.754;2023-09-12T04:59:38;16.67;;;12.45;;
65459;SDS011;52058;49.822;6.754;2023-09-12T05:02:04;14.35;;;12.25;;
65459;SDS011;52058;49.822;6.754;2023-09-12T05:04:31;16.70;;;11.70;;
65459;SDS011;52058;49.822;6.754;2023-09-12T05:06:58;15.40;;;11.73;;
65459;SDS011;52058;49.822;6.754;2023-09-12T05:09:24;18.02;;;11.48;;
65459;SDS011;52058;49.822;6.754;2023-09-12T05:11:52;18.92;;;11.65;;
65459;SDS011;52058;49.822;6.754;2023-09-12T05:14:19;16.70;;;11.93;;
65459;SDS011;52058;49.822;6.754;2023-09-12T05:16:46;14.30;;;12.30;;
65459;SDS011;52058;49.822;6.754;2023-09-12T05:19:12;17.90;;;12.38;;
65459;SDS011;52058;49.822;6.754;2023-09-12T05:21:39;16.25;;;12.07;;
65459;SDS011;52058;49.822;6.754;2023-09-12T05:24:06;16.83;;;12.38;;
65459;SDS011;52058;49.822;6.754;2023-09-12T05:26:32;18.50;;;13.13;;
65459;SDS011;52058;49.822;6.754;2023-09-12T05:29:00;20.02;;;13.82;;
65459;SDS011;52058;49.822;6.754;2023-09-12T05:31:27;17.27;;;12.90;;
65459;SDS011;52058;49.822;6.754;2023-09-12T05:33:54;16.98;;;12.45;;
65459;SDS011;52058;49.822;6.754;2023-09-12T05:36:21;16.42;;;11.35;;
65459;SDS011;52058;49.822;6.754;2023-09-12T05:38:47;16.35;;;11.75;;
65459;SDS011;52058;49.822;6.754;2023-09-12T05:41:14;18.58;;;12.38;;
65459;SDS011;52058;49.822;6.754;2023-09-12T05:43:40;16.70;;;11.68;;
65459;SDS011;52058;49.822;6.754;2023-09-12T05:46:08;17.73;;;11.80;;
65459;SDS011;52058;49.822;6.754;2023-09-12T05:48:35;17.50;;;12.73;;
65459;SDS011;52058;49.822;6.754;2023-09-12T05:51:02;18.80;;;12.90;;
65459;SDS011;52058;49.822;6.754;2023-09-12T05:53:28;17.00;;;12.65;;
65459;SDS011;52058;49.822;6.754;2023-09-12T05:55:55;16.40;;;12.77;;
65459;SDS011;52058;49.822;6.754;2023-09-12T05:58:22;19.33;;;13.07;;
65459;SDS011;52058;49.822;6.754;2023-09-12T06:00:49;19.23;;;12.90;;
65459;SDS011;52058;49.822;6.754;2023-09-12T06:03:17;21.15;;;14.30;;
65459;SDS011;52058;49.822;6.754;2023-09-12T06:05:43;18.85;;;12.43;;
65459;SDS011;52058;49.822;6.754;2023-09-12T06:08:10;20.95;;;12.73;;
65459;SDS011;52058;49.822;6.754;2023-09-12T06:10:37;17.35;;;11.70;;
65459;SDS011;52058;49.822;6.754;2023-09-12T06:13:03;15.68;;;11.85;;
65459;SDS011;52058;49.822;6.754;2023-09-12T06:15:30;18.00;;;13.05;;
65459;SDS011;52058;49.822;6.754;2023-09-12T06:17:56;19.15;;;14.07;;
65459;SDS011;52058;49.822;6.754;2023-09-12T06:20:24;17.65;;;12.75;;
65459;SDS011;52058;49.822;6.754;2023-09-12T06:22:51;18.42;;;13.40;;
65459;SDS011;52058;49.822;6.754;2023-09-12T06:25:18;16.17;;;13.50;;
65459;SDS011;52058;49.822;6.754;2023-09-12T06:27:44;21.20;;;12.77;;
65459;SDS011;52058;49.822;6.754;2023-09-12T06:30:11;13.70;;;12.20;;
65459;SDS011;52058;49.822;6.754;2023-09-12T06:32:39;15.75;;;11.88;;
65459;SDS011;52058;49.822;6.754;2023-09-12T06:35:06;20.00;;;14.10;;
65459;SDS011;52058;49.822;6.754;2023-09-12T06:37:37;16.20;;;12.88;;
65459;SDS011;52058;49.822;6.754;2023-09-12T06:40:04;20.95;;;12.60;;
65459;SDS011;52058;49.822;6.754;2023-09-12T06:42:31;16.25;;;12.52;;
65459;SDS011;52058;49.822;6.754;2023-09-12T06:44:57;18.95;;;12.30;;
65459;SDS011;52058;49.822;6.754;2023-09-12T06:47:24;16.63;;;11.73;;
65459;SDS011;52058;49.822;6.754;2023-09-12T06:49:51;14.45;;;12.02;;
65459;SDS011;52058;49.822;6.754;2023-09-12T06:52:17;16.50;;;12.15;;
65459;SDS011;52058;49.822;6.754;2023-09-12T06:54:45;17.55;;;11.95;;
65459;SDS011;52058;49.822;6.754;2023-09-12T06:57:12;13.60;;;11.18;;
65459;SDS011;52058;49.822;6.754;2023-09-12T06:59:39;16.63;;;12.45;;
65459;SDS011;52058;49.822;6.754;2023-09-12T07:02:05;17.42;;;12.23;;
65459;SDS011;52058;49.822;6.754;2023-09-12T07:04:32;18.88;;;12.32;;
65459;SDS011;52058;49.822;6.754;2023-09-12T07:06:59;15.50;;;11.65;;
65459;SDS011;52058;49.822;6.754;2023-09-12T07:09:25;25.23;;;12.73;;
65459;SDS011;52058;49.822;6.754;2023-09-12T07:11:53;14.82;;;11.80;;
65459;SDS011;52058;49.822;6.754;2023-09-12T07:14:20;21.98;;;12.60;;
65459;SDS011;52058;49.822;6.754;2023-09-12T07:16:47;20.40;;;12.23;;
65459;SDS011;52058;49.822;6.754;2023-09-12T07:19:13;14.07;;;11.43;;
65459;SDS011;52058;49.822;6.754;2023-09-12T07:21:40;18.35;;;11.45;;
65459;SDS011;52058;49.822;6.754;2023-09-12T07:24:06;13.88;;;10.98;;
65459;SDS011;52058;49.822;6.754;2023-09-12T07:26:33;15.38;;;10.90;;
65459;SDS011;52058;49.822;6.754;2023-09-12T07:29:01;17.95;;;11.68;;
65459;SDS011;52058;49.822;6.754;2023-09-12T07:31:30;14.02;;;11.43;;
65459;SDS011;52058;49.822;6.754;2023-09-12T07:33:57;14.95;;;11.60;;
65459;SDS011;52058;49.822;6.754;2023-09-12T07:36:24;16.33;;;11.02;;
65459;SDS011;52058;49.822;6.754;2023-09-12T07:38:51;13.85;;;10.23;;
65459;SDS011;52058;49.822;6.754;2023-09-12T07:41:17;15.23;;;9.73;;
65459;SDS011;52058;49.822;6.754;2023-09-12T07:43:44;17.05;;;11.00;;
65459;SDS011;52058;49.822;6.754;2023-09-12T07:46:12;16.92;;;11.07;;
65459;SDS011;52058;49.822;6.754;2023-09-12T07:48:38;18.40;;;10.90;;
65459;SDS011;52058;49.822;6.754;2023-09-12T07:51:11;20.27;;;10.93;;
65459;SDS011;52058;49.822;6.754;2023-09-12T07:53:39;15.48;;;9.73;;
65459;SDS011;52058;49.822;6.754;2023-09-12T07:56:07;15.02;;;10.40;;
65459;SDS011;52058;49.822;6.754;2023-09-12T07:58:35;16.58;;;10.60;;
65459;SDS011;52058;49.822;6.754;2023-09-12T08:01:04;15.93;;;11.13;;
65459;SDS011;52058;49.822;6.754;2023-09-12T08:03:32;19.85;;;10.88;;
65459;SDS011;52058;49.822;6.754;2023-09-12T08:05:59;16.95;;;10.98;;
65459;SDS011;52058;49.822;6.754;2023-09-12T08:08:26;13.80;;;10.65;;
65459;SDS011;52058;49.822;6.754;2023-09-12T08:10:53;14.85;;;11.13;;
65459;SDS011;52058;49.822;6.754;2023-09-12T08:13:19;23.58;;;11.85;;
65459;SDS011;52058;49.822;6.754;2023-09-12T08:15:46;20.50;;;11.77;;
65459;SDS011;52058;49.822;6.754;2023-09-12T08:18:13;14.80;;;11.73;;
65459;SDS011;52058;49.822;6.754;2023-09-12T08:20:41;17.80;;;11.80;;
65459;SDS011;52058;49.822;6.754;2023-09-12T08:23:08;17.30;;;11.35;;
65459;SDS011;52058;49.822;6.754;2023-09-12T08:25:35;17.90;;;12.13;;
65459;SDS011;52058;49.822;6.754;2023-09-12T08:28:02;19.85;;;11.98;;
65459;SDS011;52058;49.822;6.754;2023-09-12T08:30:29;16.80;;;10.77;;
65459;SDS011;52058;49.822;6.754;2023-09-12T08:32:55;22.02;;;11.45;;
65459;SDS011;52058;49.822;6.754;2023-09-12T08:35:22;14.77;;;10.30;;
65459;SDS011;52058;49.822;6.754;2023-09-12T08:37:50;19.10;;;11.20;;
65459;SDS011;52058;49.822;6.754;2023-09-12T08:40:17;17.40;;;10.48;;
65459;SDS011;52058;49.822;6.754;2023-09-12T08:42:44;19.90;;;11.38;;
65459;SDS011;52058;49.822;6.754;2023-09-12T08:45:12;15.40;;;10.45;;
65459;SDS011;52058;49.822;6.754;2023-09-12T08:47:40;15.30;;;10.30;;
65459;SDS011;52058;49.822;6.754;2023-09-12T08:50:08;15.48;;;9.35;;
65459;SDS011;52058;49.822;6.754;2023-09-12T08:52:37;13.75;;;9.98;;
65459;SDS011;52058;49.822;6.754;2023-09-12T08:55:06;16.20;;;9.82;;
65459;SDS011;52058;49.822;6.754;2023-09-12T08:57:33;13.63;;;9.40;;
65459;SDS011;52058;49.822;6.754;2023-09-12T09:00:02;13.00;;;8.65;;
65459;SDS011;52058;49.822;6.754;2023-09-12T09:02:31;11.40;;;9.27;;
65459;SDS011;52058;49.822;6.754;2023-09-12T09:04:59;14.40;;;9.52;;
65459;SDS011;52058;49.822;6.754;2023-09-12T09:07:30;12.35;;;9.55;;
65459;SDS011;52058;49.822;6.754;2023-09-12T09:09:58;14.23;;;9.60;;
65459;SDS011;52058;49.822;6.754;2023-09-12T09:12:30;13.02;;;9.38;;
65459;SDS011;52058;49.822;6.754;2023-09-12T09:14:57;12.57;;;9.30;;
65459;SDS011;52058;49.822;6.754;2023-09-12T09:17:24;13.57;;;9.77;;
65459;SDS011;52058;49.822;6.754;2023-09-12T09:19:52;11.32;;;8.70;;
65459;SDS011;52058;49.822;6.754;2023-09-12T09:22:19;12.05;;;8.38;;
65459;SDS011;52058;49.822;6.754;2023-09-12T09:24:48;14.18;;;10.10;;
65459;SDS011;52058;49.822;6.754;2023-09-12T09:27:20;15.43;;;9.50;;
65459;SDS011;52058;49.822;6.754;2023-09-12T09:30:00;12.25;;;9.02;;
65459;SDS011;52058;49.822;6.754;2023-09-12T09:32:28;13.77;;;9.25;;
65459;SDS011;52058;49.822;6.754;2023-09-12T09:34:55;15.35;;;8.90;;
65459;SDS011;52058;49.822;6.754;2023-09-12T09:37:21;11.13;;;8.65;;
65459;SDS011;52058;49.822;6.754;2023-09-12T09:39:50;14.43;;;8.27;;
65459;SDS011;52058;49.822;6.754;2023-09-12T09:42:17;12.82;;;9.57;;
65459;SDS011;52058;49.822;6.754;2023-09-12T09:44:45;11.48;;;8.88;;
65459;SDS011;52058;49.822;6.754;2023-09-12T09:47:13;13.25;;;8.55;;
65459;SDS011;52058;49.822;6.754;2023-09-12T09:49:40;11.90;;;8.88;;
65459;SDS011;52058;49.822;6.754;2023-09-12T09:52:06;10.73;;;8.50;;
65459;SDS011;52058;49.822;6.754;2023-09-12T09:54:33;9.23;;;7.90;;
65459;SDS011;52058;49.822;6.754;2023-09-12T09:57:00;12.00;;;7.97;;
65459;SDS011;52058;49.822;6.754;2023-09-12T09:59:28;12.68;;;8.60;;
65459;SDS011;52058;49.822;6.754;2023-09-12T10:01:57;13.07;;;8.48;;
65459;SDS011;52058;49.822;6.754;2023-09-12T10:04:26;14.93;;;9.07;;
65459;SDS011;52058;49.822;6.754;2023-09-12T10:06:55;8.85;;;7.30;;
65459;SDS011;52058;49.822;6.754;2023-09-12T10:09:25;15.55;;;8.77;;
65459;SDS011;52058;49.822;6.754;2023-09-12T10:11:53;9.95;;;7.85;;
65459;SDS011;52058;49.822;6.754;2023-09-12T10:14:22;12.93;;;7.03;;
65459;SDS011;52058;49.822;6.754;2023-09-12T10:16:50;10.88;;;7.80;;
65459;SDS011;52058;49.822;6.754;2023-09-12T10:19:20;8.80;;;7.00;;
65459;SDS011;52058;49.822;6.754;2023-09-12T10:21:50;11.55;;;7.38;;
65459;SDS011;52058;49.822;6.754;2023-09-12T10:24:21;13.80;;;8.52;;
65459;SDS011;52058;49.822;6.754;2023-09-12T10:26:49;12.27;;;9.52;;
65459;SDS011;52058;49.822;6.754;2023-09-12T10:29:16;12.85;;;8.63;;
65459;SDS011;52058;49.822;6.754;2023-09-12T10:31:43;13.25;;;8.30;;
65459;SDS011;52058;49.822;6.754;2023-09-12T10:34:11;11.98;;;9.15;;
65459;SDS011;52058;49.822;6.754;2023-09-12T10:36:41;12.82;;;8.65;;
65459;SDS011;52058;49.822;6.754;2023-09-12T10:39:09;12.38;;;8.80;;
65459;SDS011;52058;49.822;6.754;2023-09-12T10:41:38;13.75;;;7.88;;
65459;SDS011;52058;49.822;6.754;2023-09-12T10:44:06;13.32;;;8.23;;
65459;SDS011;52058;49.822;6.754;2023-09-12T10:46:36;10.88;;;8.18;;
65459;SDS011;52058;49.822;6.754;2023-09-12T10:49:06;10.45;;;8.18;;
65459;SDS011;52058;49.822;6.754;2023-09-12T10:51:34;15.10;;;8.00;;
65459;SDS011;52058;49.822;6.754;2023-09-12T10:54:06;11.90;;;8.73;;
65459;SDS011;52058;49.822;6.754;2023-09-12T10:56:33;11.50;;;8.23;;
65459;SDS011;52058;49.822;6.754;2023-09-12T10:59:12;13.48;;;9.07;;
65459;SDS011;52058;49.822;6.754;2023-09-12T11:01:40;10.10;;;8.48;;
65459;SDS011;52058;49.822;6.754;2023-09-12T11:10:18;11.23;;;8.38;;
65459;SDS011;52058;49.822;6.754;2023-09-12T11:12:48;12.30;;;8.00;;
65459;SDS011;52058;49.822;6.754;2023-09-12T11:15:15;10.45;;;7.82;;
65459;SDS011;52058;49.822;6.754;2023-09-12T11:17:43;9.07;;;8.18;;
65459;SDS011;52058;49.822;6.754;2023-09-12T11:20:10;9.75;;;8.10;;
65459;SDS011;52058;49.822;6.754;2023-09-12T11:22:39;13.02;;;8.52;;
65459;SDS011;52058;49.822;6.754;2023-09-12T11:25:16;10.63;;;7.78;;
65459;SDS011;52058;49.822;6.754;2023-09-12T11:27:45;10.82;;;8.40;;
65459;SDS011;52058;49.822;6.754;2023-09-12T11:30:29;10.60;;;7.43;;
65459;SDS011;52058;49.822;6.754;2023-09-12T11:32:56;12.68;;;7.85;;
65459;SDS011;52058;49.822;6.754;2023-09-12T11:35:24;9.57;;;7.93;;
65459;SDS011;52058;49.822;6.754;2023-09-12T11:37:51;13.48;;;7.50;;
65459;SDS011;52058;49.822;6.754;2023-09-12T11:40:23;10.45;;;7.53;;
65459;SDS011;52058;49.822;6.754;2023-09-12T11:42:51;9.23;;;7.72;;
65459;SDS011;52058;49.822;6.754;2023-09-12T11:45:41;9.80;;;8.23;;
65459;SDS011;52058;49.822;6.754;2023-09-12T11:48:56;10.60;;;7.85;;
65459;SDS011;52058;49.822;6.754;2023-09-12T11:51:25;8.60;;;7.35;;
65459;SDS011;52058;49.822;6.754;2023-09-12T12:07:39;11.93;;;8.35;;
65459;SDS011;52058;49.822;6.754;2023-09-12T12:10:08;11.50;;;8.50;;
65459;SDS011;52058;49.822;6.754;2023-09-12T12:12:34;11.55;;;8.02;;
65459;SDS011;52058;49.822;6.754;2023-09-12T12:15:02;11.68;;;7.90;;
65459;SDS011;52058;49.822;6.754;2023-09-12T12:17:29;10.00;;;7.78;;
65459;SDS011;52058;49.822;6.754;2023-09-12T12:19:56;12.73;;;8.30;;
65459;SDS011;52058;49.822;6.754;2023-09-12T12:22:22;13.00;;;8.20;;
65459;SDS011;52058;49.822;6.754;2023-09-12T12:24:50;11.48;;;7.70;;
65459;SDS011;52058;49.822;6.754;2023-09-12T12:27:17;10.98;;;8.05;;
65459;SDS011;52058;49.822;6.754;2023-09-12T12:29:44;12.30;;;7.97;;
65459;SDS011;52058;49.822;6.754;2023-09-12T12:32:15;9.73;;;7.80;;
65459;SDS011;52058;49.822;6.754;2023-09-12T12:34:42;11.25;;;7.78;;
65459;SDS011;52058;49.822;6.754;2023-09-12T12:37:13;13.23;;;8.13;;
65459;SDS011;52058;49.822;6.754;2023-09-12T12:39:42;11.45;;;7.35;;
65459;SDS011;52058;49.822;6.754;2023-09-12T12:42:10;10.35;;;7.90;;
65459;SDS011;52058;49.822;6.754;2023-09-12T12:44:36;9.43;;;7.90;;
65459;SDS011;52058;49.822;6.754;2023-09-12T12:47:06;8.65;;;7.15;;
65459;SDS011;52058;49.822;6.754;2023-09-12T12:49:37;12.80;;;7.90;;
65459;SDS011;52058;49.822;6.754;2023-09-12T12:52:05;10.45;;;7.70;;
65459;SDS011;52058;49.822;6.754;2023-09-12T12:54:31;11.95;;;7.30;;
65459;SDS011;52058;49.822;6.754;2023-09-12T12:56:59;11.93;;;7.65;;
65459;SDS011;52058;49.822;6.754;2023-09-12T12:59:27;10.18;;;6.97;;
65459;SDS011;52058;49.822;6.754;2023-09-12T13:01:59;9.85;;;7.50;;
65459;SDS011;52058;49.822;6.754;2023-09-12T13:04:26;11.85;;;7.50;;
65459;SDS011;52058;49.822;6.754;2023-09-12T13:06:52;10.98;;;7.78;;
65459;SDS011;52058;49.822;6.754;2023-09-12T13:09:19;11.82;;;7.50;;
65459;SDS011;52058;49.822;6.754;2023-09-12T13:11:46;12.80;;;7.35;;
65459;SDS011;52058;49.822;6.754;2023-09-12T13:14:12;8.85;;;6.80;;
65459;SDS011;52058;49.822;6.754;2023-09-12T13:16:40;10.02;;;7.05;;
65459;SDS011;52058;49.822;6.754;2023-09-12T13:19:07;8.82;;;7.68;;
65459;SDS011;52058;49.822;6.754;2023-09-12T13:21:33;9.68;;;7.47;;
65459;SDS011;52058;49.822;6.754;2023-09-12T13:24:00;10.65;;;7.18;;
65459;SDS011;52058;49.822;6.754;2023-09-12T13:26:26;10.52;;;6.68;;
65459;SDS011;52058;49.822;6.754;2023-09-12T13:28:53;7.68;;;6.60;;
65459;SDS011;52058;49.822;6.754;2023-09-12T13:31:20;9.50;;;6.30;;
65459;SDS011;52058;49.822;6.754;2023-09-12T13:33:48;8.63;;;6.40;;
65459;SDS011;52058;49.822;6.754;2023-09-12T13:36:15;8.27;;;6.20;;
65459;SDS011;52058;49.822;6.754;2023-09-12T13:38:41;8.05;;;6.07;;
65459;SDS011;52058;49.822;6.754;2023-09-12T13:41:08;8.98;;;6.72;;
65459;SDS011;52058;49.822;6.754;2023-09-12T13:43:34;12.07;;;6.22;;
65459;SDS011;52058;49.822;6.754;2023-09-12T13:46:01;8.75;;;6.05;;
65459;SDS011;52058;49.822;6.754;2023-09-12T13:48:28;8.98;;;6.72;;
65459;SDS011;52058;49.822;6.754;2023-09-12T13:50:56;8.25;;;6.45;;
65459;SDS011;52058;49.822;6.754;2023-09-12T13:53:23;9.60;;;6.03;;
65459;SDS011;52058;49.822;6.754;2023-09-12T13:55:49;9.23;;;5.93;;
65459;SDS011;52058;49.822;6.754;2023-09-12T13:58:16;7.25;;;5.95;;
65459;SDS011;52058;49.822;6.754;2023-09-12T14:00:42;9.85;;;6.25;;
65459;SDS011;52058;49.822;6.754;2023-09-12T14:03:10;7.85;;;5.97;;
65459;SDS011;52058;49.822;6.754;2023-09-12T14:05:36;9.27;;;6.35;;
65459;SDS011;52058;49.822;6.754;2023-09-12T14:08:04;8.25;;;6.00;;
65459;SDS011;52058;49.822;6.754;2023-09-12T14:10:31;6.90;;;5.65;;
65459;SDS011;52058;49.822;6.754;2023-09-12T14:12:58;9.77;;;6.68;;
65459;SDS011;52058;49.822;6.754;2023-09-12T14:15:24;10.18;;;6.50;;
65459;SDS011;52058;49.822;6.754;2023-09-12T14:17:51;12.38;;;6.55;;
65459;SDS011;52058;49.822;6.754;2023-09-12T14:20:18;8.00;;;6.30;;
65459;SDS011;52058;49.822;6.754;2023-09-12T14:22:46;8.05;;;5.93;;
65459;SDS011;52058;49.822;6.754;2023-09-12T14:25:15;8.82;;;6.38;;
65459;SDS011;52058;49.822;6.754;2023-09-12T15:01:45;11.30;;;7.07;;
65459;SDS011;52058;49.822;6.754;2023-09-12T15:04:11;8.40;;;6.38;;
65459;SDS011;52058;49.822;6.754;2023-09-12T15:06:38;9.50;;;6.20;;
65459;SDS011;52058;49.822;6.754;2023-09-12T15:09:05;8.75;;;6.65;;
65459;SDS011;52058;49.822;6.754;2023-09-12T15:11:31;9.43;;;6.68;;
65459;SDS011;52058;49.822;6.754;2023-09-12T15:13:58;10.57;;;6.78;;
65459;SDS011;52058;49.822;6.754;2023-09-12T15:16:27;9.88;;;6.85;;
65459;SDS011;52058;49.822;6.754;2023-09-12T15:18:57;9.45;;;6.85;;
65459;SDS011;52058;49.822;6.754;2023-09-12T15:21:24;8.55;;;6.70;;
65459;SDS011;52058;49.822;6.754;2023-09-12T15:23:50;7.82;;;6.90;;
65459;SDS011;52058;49.822;6.754;2023-09-12T15:26:17;8.75;;;6.60;;
65459;SDS011;52058;49.822;6.754;2023-09-12T15:28:43;13.43;;;6.47;;
65459;SDS011;52058;49.822;6.754;2023-09-12T15:31:10;6.75;;;6.05;;
65459;SDS011;52058;49.822;6.754;2023-09-12T15:33:37;10.60;;;6.00;;